New Portland, Maine
Current Conditions -  °F | °C
As of 10:55 PM on Thursday 18 Dec 2014 (Local Time) from KWVL Reporting Station
Few Clouds Few Clouds  
Wind Chill: -5°   Ceiling: Unl
Heat Index: -1°   Visibility: 10mi
Dew Point: -6°   Wind: 8mph
Humidity: 69%   Direction: 300°WNW
Pressure: 29.74"   Gusts: NA
Location:  44.88°N, 70.1°W
Report Text: KWVL 190355Z 30007KT 10SM FEW033 M01/M06 A2974 RMK AO1
Loading
Personal Weather Stations






























Interactive Weather Map New forecast layout! Learn more

10-Day Weather Forecast

Advertisements
Track Severe Weather on mobile